CheckWX is a tool to help pilots better visualize weather data.  It is not intended as a substitute for an official pre-flight weather briefing.

21:37:13 UTC

SPHY TAF
Andahuaylas Airport
Andahuaylas, Peru
SPHY 201700Z 2018/2118 VRB03KT 7000 -DZ SCT010 OVC040 TX13/2019Z TN03/2111Z TEMPO 2018/2022 36010KT BECMG 2022/2023 00000KT SCT012 BKN040 TEMPO 2100/2104 RA BECMG 2108/2110 5000 BCFG SCT010 OVC030

Mar-20@
18:00 UTC

Mar-20 @ 18:00 UTC

Mar-20@
22:00 UTC

Mar-20 @ 22:00 UTC

SPHY 201700Z 2018/2118 VRB03KT 7000 -DZ SCT010 OVC040 TX13/2019Z TN03/2111Z
Wind
  • Variable at 3 KTS
Conditions
Light Drizzle
Cloud Levels
  • Scattered at 1,000' AGL
  • Overcast at 4,000' AGL

Mar-20@
18:00 UTC

Mar-20 @ 18:00 UTC

Mar-20@
22:00 UTC

Mar-20 @ 22:00 UTC

TEMPO 2018/2022 36010KT

Temporary

Temporary Changes expected for less than half the time period

Wind
  • 360° at 10 KTS

Mar-20@
22:00 UTC

Mar-20 @ 22:00 UTC

Mar-21@
08:00 UTC

Mar-21 @ 08:00 UTC

BECMG 2022/2023 00000KT SCT012 BKN040

Becoming

Becoming Conditions expected by Wed, Mar 20, 2019 @ 23:00 UTC

Conditions
Light Drizzle
Cloud Levels
  • Scattered at 1,200' AGL
  • Broken at 4,000' AGL

Mar-21@
00:00 UTC

Mar-21 @ 00:00 UTC

Mar-21@
04:00 UTC

Mar-21 @ 04:00 UTC

TEMPO 2100/2104 RA

Temporary

Temporary Changes expected for less than half the time period

Conditions
Rain

Mar-21@
08:00 UTC

Mar-21 @ 08:00 UTC

Mar-21@
18:00 UTC

Mar-21 @ 18:00 UTC

BECMG 2108/2110 5000 BCFG SCT010 OVC030

Becoming

Becoming Conditions expected by Thu, Mar 21, 2019 @ 10:00 UTC

Conditions
Patches of Fog
Cloud Levels
  • Scattered at 1,000' AGL
  • Overcast at 3,000' AGL